University Park, Texas
Current Conditions -  °F | °C
As of 2:10 PM on Thursday 18 Dec 2014 (Local Time) from KDAL Reporting Station
Haze Haze  
Wind Chill: 49°   Ceiling: 900
Heat Index: 49°   Visibility: 5mi
Dew Point: 45°   Wind: 0mph
Humidity: 86%   Direction: NA
Pressure: 30.1"   Gusts: NA
Location:  32.8367°N, 96.796°W
Report Text: KDAL 182010Z 00000KT 5SM BR OVC009 09/07 A3010 RMK AO2 DZE1956 P0000 T00940072
Loading
Personal Weather Stations






























Interactive Weather Map New forecast layout! Learn more

10-Day Weather Forecast

Advertisements
Track Severe Weather on mobile